Terminal Aerodrome Forecast
Issued by NWS Portland, ME

Current Version | Previous Version | Text Only | Print | Product List | Glossary On
Versions: 1 2 3 4 5 6 7 8 9 10 11 12 13 14 15 16 17 18 19 20 21
000 FTUS41 KGYX 302321 TAFCON TAF KCON 302321Z 0100/0124 VRB03KT P6SM SCT200 FM011600 17007KT P6SM SCT050 BKN100 FM012100 18008KT P6SM -TSRA OVC050CB=

USA.gov is the U.S. government's official web portal to all federal, state and local government web resources and services.